Time;durP1;ratioP1;P1;durP2;ratioP2;P2;SDS_P1;SDS_P2;PMS_P1;PMS_P2;Temp;Humidity;BMP_temperature;BMP_pressure;BME280_temperature;BME280_humidity;BME280_pressure;Samples;Min_cycle;Max_cycle;Signal;HPM_P1;HPM_P2
2024/04/12 00:00:53;;;;;;;5.10;2.50;;;;;;;12.55;50.56;100358.22;7422669;26;20247;-82
2024/04/12 00:04:18;;;;;;;6.83;3.00;;;;;;;12.44;51.49;100374.84;7422464;26;20252;-81
2024/04/12 00:07:42;;;;;;;3.97;2.57;;;;;;;12.58;50.42;100358.69;7421970;26;20237;-83
2024/04/12 00:11:04;;;;;;;6.60;2.77;;;;;;;12.47;51.52;100342.06;7422345;26;20727;-82
2024/04/12 00:14:27;;;;;;;5.57;2.97;;;;;;;12.88;50.26;100357.81;7422482;26;20260;-84
2024/04/12 00:17:55;;;;;;;4.37;2.67;;;;;;;12.83;49.38;100337.69;7421915;26;20708;-82
2024/04/12 00:21:18;;;;;;;3.20;2.60;;;;;;;12.82;49.21;100339.59;7427249;26;20238;-82
2024/04/12 00:24:38;;;;;;;8.87;3.00;;;;;;;12.35;50.88;100335.38;7427364;26;20322;-82
2024/04/12 00:28:05;;;;;;;3.70;2.77;;;;;;;12.34;51.03;100342.63;7427741;26;20231;-82
2024/04/12 00:31:28;;;;;;;5.17;3.13;;;;;;;12.15;52.10;100344.97;7428567;26;20257;-83
2024/04/12 00:34:55;;;;;;;3.70;2.87;;;;;;;12.39;51.60;100325.88;7429482;26;20229;-82
2024/04/12 00:38:16;;;;;;;7.13;4.30;;;;;;;12.44;51.15;100354.06;7430168;26;20221;-82
2024/04/12 00:41:39;;;;;;;5.23;3.10;;;;;;;12.69;50.09;100341.22;7427535;26;20238;-82
2024/04/12 00:45:02;;;;;;;3.50;2.87;;;;;;;12.74;49.88;100338.81;7427129;26;20565;-83
2024/04/12 00:48:26;;;;;;;4.97;3.33;;;;;;;12.85;49.36;100338.34;7426399;26;20579;-82
2024/04/12 00:51:52;;;;;;;2.70;2.50;;;;;;;12.80;49.18;100332.66;7427582;26;20233;-82
2024/04/12 00:55:13;;;;;;;3.00;2.80;;;;;;;12.40;50.37;100333.81;7433343;26;20274;-83
2024/04/12 00:58:37;;;;;;;4.33;3.23;;;;;;;11.49;52.59;100340.00;7428202;26;20705;-82
2024/04/12 01:01:59;;;;;;;3.83;2.80;;;;;;;11.67;51.99;100329.84;7427787;26;20743;-82
2024/04/12 01:05:22;;;;;;;4.27;3.10;;;;;;;11.32;53.28;100321.28;7426445;26;20221;-82
2024/04/12 01:08:51;;;;;;;3.70;3.40;;;;;;;11.22;54.34;100340.41;7427174;26;20217;-82
2024/04/12 01:12:17;;;;;;;8.80;3.13;;;;;;;11.54;53.67;100328.66;7426711;26;20646;-82
2024/04/12 01:15:40;;;;;;;6.00;4.60;;;;;;;11.18;53.91;100327.41;7427508;26;20634;-82
2024/04/12 01:19:03;;;;;;;5.50;2.73;;;;;;;11.96;52.79;100338.16;7426669;26;20314;-82
2024/04/12 01:22:25;;;;;;;6.70;3.00;;;;;;;12.06;51.69;100325.25;7426685;26;20230;-85
2024/04/12 01:25:51;;;;;;;5.87;2.97;;;;;;;12.24;50.87;100320.41;7429408;26;20632;-85
2024/04/12 01:29:14;;;;;;;5.70;4.03;;;;;;;12.06;50.56;100324.41;7425529;26;20284;-85
2024/04/12 01:32:38;;;;;;;5.07;3.20;;;;;;;11.68;51.90;100336.91;7428598;26;20571;-85
2024/04/12 01:36:05;;;;;;;4.53;2.70;;;;;;;11.98;51.11;100335.28;7431424;26;20235;-85
2024/04/12 01:39:28;;;;;;;4.60;3.07;;;;;;;11.60;52.88;100331.56;7430435;26;20276;-85
2024/04/12 01:42:51;;;;;;;3.67;3.03;;;;;;;11.67;52.49;100334.38;7425689;26;20274;-84
2024/04/12 01:46:15;;;;;;;6.77;3.40;;;;;;;11.56;53.01;100332.88;7423888;26;20610;-85
2024/04/12 01:49:43;;;;;;;3.60;2.90;;;;;;;11.52;53.42;100331.53;7422717;26;20236;-85
2024/04/12 01:53:09;;;;;;;3.40;2.80;;;;;;;11.53;53.40;100346.75;7423880;26;20221;-85
2024/04/12 01:56:32;;;;;;;3.40;3.10;;;;;;;11.40;53.14;100329.41;7423422;26;20225;-85
2024/04/12 01:59:55;;;;;;;3.67;3.00;;;;;;;11.20;54.15;100357.78;7422937;26;20276;-85
2024/04/12 02:03:18;;;;;;;4.43;3.13;;;;;;;11.33;54.34;100358.09;7423652;26;20222;-85
2024/04/12 02:06:42;;;;;;;6.97;3.13;;;;;;;11.20;53.82;100350.53;7423652;26;20227;-85
2024/04/12 02:10:11;;;;;;;4.20;3.00;;;;;;;11.38;53.48;100361.97;7422637;26;20236;-85
2024/04/12 02:13:39;;;;;;;6.07;3.27;;;;;;;11.38;53.31;100363.81;7423686;26;20730;-85
2024/04/12 02:17:05;;;;;;;6.50;2.93;;;;;;;11.90;52.66;100381.25;7422559;26;20312;-85
2024/04/12 02:20:33;;;;;;;3.50;3.17;;;;;;;12.03;51.61;100368.84;7422711;26;20242;-85
2024/04/12 02:24:00;;;;;;;3.50;3.00;;;;;;;11.94;51.03;100369.06;7423499;26;20829;-85
2024/04/12 02:27:22;;;;;;;4.53;3.10;;;;;;;11.49;51.73;100363.44;7422206;26;20364;-85
2024/04/12 02:30:53;;;;;;;3.07;2.83;;;;;;;11.34;52.19;100373.28;7422894;26;20300;-85
2024/04/12 02:34:19;;;;;;;3.67;3.17;;;;;;;11.13;53.33;100352.25;7423285;26;20229;-83
2024/04/12 02:37:41;;;;;;;3.40;3.10;;;;;;;10.52;54.92;100361.88;7421908;26;20303;-84
2024/04/12 02:41:05;;;;;;;4.80;3.50;;;;;;;10.07;56.63;100356.03;7421514;26;20230;-85
2024/04/12 02:44:28;;;;;;;4.10;3.53;;;;;;;10.61;55.74;100323.94;7422762;26;20228;-85
2024/04/12 02:47:53;;;;;;;4.17;3.50;;;;;;;10.95;55.58;100361.53;7421355;26;20214;-85
2024/04/12 02:51:22;;;;;;;3.63;3.33;;;;;;;11.26;54.31;100363.34;7422324;26;20253;-85
2024/04/12 02:54:47;;;;;;;8.40;4.23;;;;;;;10.63;55.33;100348.06;7423058;26;20228;-84
2024/04/12 02:58:08;;;;;;;5.07;3.70;;;;;;;10.44;56.38;100360.00;7421894;26;20331;-83
2024/04/12 03:01:33;;;;;;;4.20;3.30;;;;;;;10.32;56.99;100346.97;7422246;26;20292;-84
2024/04/12 03:04:54;;;;;;;6.47;4.10;;;;;;;10.67;56.73;100349.38;7423014;26;20707;-83
2024/04/12 03:08:20;;;;;;;7.03;4.03;;;;;;;11.23;55.42;100335.84;7470586;26;20758;-83
2024/04/12 03:11:43;;;;;;;4.93;4.17;;;;;;;11.49;54.42;100337.28;7470564;26;20235;-83
2024/04/12 03:15:04;;;;;;;8.27;4.10;;;;;;;11.30;55.15;100345.78;7470645;26;20270;-83
2024/04/12 03:18:28;;;;;;;9.90;4.70;;;;;;;10.75;56.85;100371.81;7470232;26;20228;-81
2024/04/12 03:21:51;;;;;;;7.97;3.63;;;;;;;11.38;55.13;100350.31;7470475;26;20279;-83
2024/04/12 03:25:17;;;;;;;5.07;4.47;;;;;;;11.52;54.75;100355.00;7470060;26;20228;-83
2024/04/12 03:28:38;;;;;;;5.57;4.70;;;;;;;11.97;54.03;100350.63;7481857;26;20271;-84
2024/04/12 03:32:04;;;;;;;8.30;4.80;;;;;;;11.86;54.09;100350.19;7484758;26;20255;-84
2024/04/12 03:35:25;;;;;;;4.13;3.73;;;;;;;11.73;54.64;100349.88;7483434;26;20231;-83
2024/04/12 03:38:48;;;;;;;7.60;4.37;;;;;;;11.58;54.69;100343.50;7475281;26;20359;-83
2024/04/12 03:42:11;;;;;;;5.00;4.47;;;;;;;11.76;54.41;100333.34;7483116;26;20228;-83
2024/04/12 03:45:35;;;;;;;4.87;4.40;;;;;;;11.96;54.08;100338.16;7482879;26;20266;-84
2024/04/12 03:49:01;;;;;;;7.07;4.73;;;;;;;12.04;53.74;100337.25;7468999;26;20231;-84
2024/04/12 03:52:25;;;;;;;5.23;4.73;;;;;;;11.95;54.08;100341.88;7470311;26;20219;-84
2024/04/12 03:55:46;;;;;;;6.87;4.70;;;;;;;12.26;53.54;100358.06;7474486;26;20269;-82
2024/04/12 03:59:12;;;;;;;4.97;4.47;;;;;;;11.91;53.67;100354.03;7473710;26;20596;-84
2024/04/12 04:02:35;;;;;;;5.57;4.50;;;;;;;12.00;54.00;100349.44;7474475;26;20227;-84
2024/04/12 04:05:58;;;;;;;4.60;4.20;;;;;;;11.94;53.97;100356.41;7474378;26;20644;-84
2024/04/12 04:09:19;;;;;;;5.83;5.20;;;;;;;11.82;53.70;100338.91;7473404;26;20765;-83
2024/04/12 04:12:44;;;;;;;10.57;5.20;;;;;;;11.87;53.41;100358.09;7474459;26;20276;-84
2024/04/12 04:16:08;;;;;;;5.43;4.93;;;;;;;11.55;54.67;100365.47;7474772;26;20230;-83
2024/04/12 04:19:34;;;;;;;9.07;5.20;;;;;;;11.91;53.41;100370.25;7473735;26;20765;-83
2024/04/12 04:23:05;;;;;;;10.10;5.33;;;;;;;11.56;54.37;100353.66;7474770;26;20221;-83
2024/04/12 04:26:26;;;;;;;11.10;6.07;;;;;;;11.81;53.89;100371.50;7474043;26;20220;-83
2024/04/12 04:29:51;;;;;;;8.63;5.60;;;;;;;11.94;53.43;100353.69;7473959;26;20246;-83
2024/04/12 04:33:16;;;;;;;5.30;4.53;;;;;;;11.89;53.75;100357.94;7474550;26;20333;-83
2024/04/12 04:36:38;;;;;;;7.07;5.20;;;;;;;11.73;52.74;100350.75;7475500;26;20568;-84
2024/04/12 04:40:02;;;;;;;5.10;4.60;;;;;;;11.60;53.84;100357.72;7473894;26;20244;-83
2024/04/12 04:43:26;;;;;;;8.93;4.90;;;;;;;11.65;54.25;100358.91;7469619;26;20236;-83
2024/04/12 04:46:47;;;;;;;6.87;4.87;;;;;;;11.53;54.19;100344.03;7475081;26;20396;-83
2024/04/12 04:50:13;;;;;;;8.53;4.73;;;;;;;11.73;53.67;100353.44;7474627;26;20255;-83
2024/04/12 04:53:36;;;;;;;8.80;6.90;;;;;;;11.79;53.30;100349.19;7474553;26;20269;-83
2024/04/12 04:57:00;;;;;;;8.17;5.20;;;;;;;11.69;53.99;100359.38;7480838;26;20266;-83
2024/04/12 05:00:22;;;;;;;11.53;4.80;;;;;;;11.88;53.63;100335.50;7482502;26;20751;-84
2024/04/12 05:03:49;;;;;;;7.20;4.67;;;;;;;11.93;53.13;100348.47;7475228;26;20282;-81
2024/04/12 05:07:15;;;;;;;9.43;5.03;;;;;;;12.01;53.09;100357.38;7441159;26;20237;-82
2024/04/12 05:10:39;;;;;;;9.03;4.97;;;;;;;12.05;53.47;100366.81;7427948;26;20599;-82
2024/04/12 05:14:13;;;;;;;4.97;4.47;;;;;;;12.14;53.20;100360.34;7426469;26;20229;-82
2024/04/12 05:17:36;;;;;;;7.40;5.33;;;;;;;12.25;52.61;100359.94;7426373;26;20283;-81
2024/04/12 05:20:59;;;;;;;11.77;5.23;;;;;;;12.20;53.42;100356.06;7428339;26;20241;-82
2024/04/12 05:24:25;;;;;;;7.03;5.07;;;;;;;12.17;53.36;100357.28;7429012;26;20219;-82
2024/04/12 05:27:48;;;;;;;6.37;5.07;;;;;;;11.82;53.85;100359.66;7432649;26;20259;-80
2024/04/12 05:31:12;;;;;;;9.53;5.43;;;;;;;11.50;55.20;100351.63;7428388;26;20828;-81
2024/04/12 05:34:36;;;;;;;10.63;5.40;;;;;;;11.78;54.05;100353.78;7428885;26;20350;-81
2024/04/12 05:38:01;;;;;;;7.07;5.00;;;;;;;12.01;54.37;100370.03;7428127;26;20360;-81
2024/04/12 05:41:32;;;;;;;6.30;5.10;;;;;;;12.59;52.92;100363.13;7427990;26;20267;-81
2024/04/12 05:44:58;;;;;;;6.73;4.90;;;;;;;12.82;52.86;100376.63;7427391;26;20230;-85
2024/04/12 05:48:21;;;;;;;6.23;4.77;;;;;;;12.96;51.69;100378.56;7427377;26;20675;-81
2024/04/12 05:51:45;;;;;;;5.40;4.67;;;;;;;12.59;52.97;100371.22;7427844;26;20240;-80
2024/04/12 05:55:13;;;;;;;6.63;4.60;;;;;;;13.23;51.38;100376.09;7427899;26;20228;-78
2024/04/12 05:58:40;;;;;;;5.63;4.43;;;;;;;13.70;51.02;100373.91;7427850;26;20229;-80
2024/04/12 06:02:05;;;;;;;6.33;4.27;;;;;;;14.11;50.26;100360.72;7427736;26;20242;-80
2024/04/12 06:05:27;;;;;;;7.10;5.00;;;;;;;14.83;47.43;100346.91;7428182;26;20224;-79
2024/04/12 06:08:52;;;;;;;7.90;4.33;;;;;;;14.64;48.16;100363.00;7426667;26;20372;-80
2024/04/12 06:12:15;;;;;;;7.73;4.30;;;;;;;14.90;48.70;100364.13;7427839;26;20259;-80
2024/04/12 06:15:45;;;;;;;6.47;3.90;;;;;;;15.15;47.92;100350.97;7427419;26;20228;-80
2024/04/12 06:19:06;;;;;;;8.00;4.43;;;;;;;15.24;48.02;100375.06;7431654;26;20305;-81
2024/04/12 06:22:31;;;;;;;9.63;4.37;;;;;;;16.11;44.81;100374.38;7430537;26;20549;-81
2024/04/12 06:25:58;;;;;;;4.50;4.10;;;;;;;16.08;44.99;100374.81;7432256;26;20555;-80
2024/04/12 06:29:22;;;;;;;9.97;4.20;;;;;;;16.24;44.27;100381.78;7424701;26;20363;-80
2024/04/12 06:32:46;;;;;;;8.10;4.27;;;;;;;16.68;43.55;100366.66;7426340;26;20229;-80
2024/04/12 06:36:11;;;;;;;7.30;4.20;;;;;;;17.51;41.96;100379.75;7428250;26;20284;-80
2024/04/12 06:39:35;;;;;;;10.60;4.70;;;;;;;17.62;41.59;100370.91;7425034;26;20304;-81
2024/04/12 06:43:05;;;;;;;8.13;4.33;;;;;;;17.44;42.17;100384.34;7424738;26;20252;-81
2024/04/12 06:46:31;;;;;;;6.60;4.20;;;;;;;18.23;40.54;100381.22;7424850;26;20296;-81
2024/04/12 06:50:08;;;;;;;6.00;4.10;;;;;;;18.19;39.82;100382.72;7423550;26;20720;-81
2024/04/12 06:53:31;;;;;;;6.03;4.03;;;;;;;18.62;39.13;100381.06;7422589;26;20360;-83
2024/04/12 06:56:55;;;;;;;6.23;4.13;;;;;;;18.49;39.33;100374.84;7424013;26;20329;-83
2024/04/12 07:00:20;;;;;;;5.97;4.20;;;;;;;18.97;39.18;100371.41;7426672;26;20252;-84
2024/04/12 07:04:05;;;;;;;6.27;4.00;;;;;;;18.98;39.20;100364.84;7424677;26;20692;-82
2024/04/12 07:07:32;;;;;;;6.00;3.80;;;;;;;19.63;38.58;100375.28;7428355;26;20581;-80
2024/04/12 07:10:52;;;;;;;5.90;3.83;;;;;;;20.08;37.10;100364.94;7470251;26;20311;-82
2024/04/12 07:14:16;;;;;;;4.57;3.90;;;;;;;20.28;36.54;100352.66;7471937;26;20234;-82
2024/04/12 07:17:40;;;;;;;4.77;3.90;;;;;;;19.78;37.30;100353.03;7475119;26;20220;-81
2024/04/12 07:24:42;;;;;;;7.20;3.97;;;;;;;20.72;36.68;100374.22;7473851;26;20328;-83
2024/04/12 07:28:06;;;;;;;6.20;3.90;;;;;;;20.81;36.03;100353.59;7474439;26;20273;-82
2024/04/12 07:31:31;;;;;;;4.00;3.33;;;;;;;21.04;36.56;100356.44;7477450;26;20280;-82
2024/04/12 07:35:24;;;;;;;5.30;3.40;;;;;;;21.77;34.36;100360.50;7486440;26;20266;-90
2024/04/12 07:38:50;;;;;;;5.93;3.53;;;;;;;21.96;33.61;100345.53;7489402;26;20229;-88
2024/04/12 07:42:18;;;;;;;4.60;3.30;;;;;;;22.22;32.64;100326.59;7487887;26;20241;-87
2024/04/12 07:45:42;;;;;;;8.50;3.80;;;;;;;22.23;32.86;100333.78;7485854;26;20290;-85
2024/04/12 07:49:33;;;;;;;5.27;3.80;;;;;;;20.63;36.18;100356.41;7481834;26;20297;-82
2024/04/12 07:52:54;;;;;;;5.23;3.53;;;;;;;21.74;36.73;100367.31;7437849;26;20289;-82
2024/04/12 07:56:20;;;;;;;6.43;3.90;;;;;;;22.21;35.04;100332.34;7429150;26;20568;-83
2024/04/12 08:00:45;;;;;;;5.57;3.77;;;;;;;22.62;33.91;100363.19;7428248;26;20359;-80
2024/04/12 08:04:22;;;;;;;6.07;3.67;;;;;;;22.91;33.66;100351.09;7375403;26;20222;-82
2024/04/12 08:07:43;;;;;;;7.03;3.53;;;;;;;22.34;32.92;100341.16;7430832;26;20284;-83
2024/04/12 08:11:31;;;;;;;7.87;4.13;;;;;;;22.29;33.60;100348.44;7472799;26;20348;-82
2024/04/12 08:14:55;;;;;;;5.27;3.60;;;;;;;23.40;31.55;100328.31;7478646;26;20287;-85
2024/04/12 08:18:20;;;;;;;7.27;3.53;;;;;;;23.57;31.79;100329.13;7477532;26;20330;-88
2024/04/12 08:21:47;;;;;;;6.50;3.50;;;;;;;23.74;30.63;100327.19;7476793;26;20247;-85
2024/04/12 08:25:17;;;;;;;6.43;3.63;;;;;;;23.96;30.18;100316.22;7478378;26;20223;-82
2024/04/12 08:28:43;;;;;;;5.70;4.07;;;;;;;23.57;31.19;100318.09;7475429;26;20235;-85
2024/04/12 08:32:11;;;;;;;6.73;3.60;;;;;;;23.24;31.57;100323.63;7476985;26;20299;-85
2024/04/12 08:35:36;;;;;;;4.43;3.80;;;;;;;23.33;31.28;100333.16;7477401;26;20575;-82
2024/04/12 08:42:37;;;;;;;7.63;4.53;;;;;;;21.96;34.02;100335.38;7456342;26;20238;-82
2024/04/12 08:46:03;;;;;;;7.87;4.10;;;;;;;23.65;31.47;100320.41;7425931;26;20231;-82
2024/04/12 08:49:24;;;;;;;6.93;4.43;;;;;;;22.71;32.91;100311.38;7423577;26;20233;-79
2024/04/12 08:52:47;;;;;;;8.10;4.70;;;;;;;22.77;32.61;100324.16;7453580;26;20233;-79
2024/04/12 08:56:17;;;;;;;4.33;3.83;;;;;;;23.19;33.39;100317.22;7472666;26;20243;-81
2024/04/12 08:59:46;;;;;;;6.50;4.23;;;;;;;24.00;31.48;100303.56;7451093;26;20233;-79
2024/04/12 09:03:24;;;;;;;8.10;4.97;;;;;;;23.62;31.47;100320.94;7423841;26;20276;-81
2024/04/12 09:06:48;;;;;;;5.90;3.87;;;;;;;24.41;31.37;100314.84;7425919;26;20273;-81
2024/04/12 09:10:15;;;;;;;5.50;4.20;;;;;;;24.08;31.55;100319.69;7423770;26;20229;-81
2024/04/12 09:13:46;;;;;;;7.07;4.47;;;;;;;23.65;32.26;100317.66;7425621;26;20942;-81
2024/04/12 09:17:14;;;;;;;5.67;4.20;;;;;;;24.57;30.86;100313.13;7424358;26;20705;-80
2024/04/12 09:20:35;;;;;;;5.67;3.97;;;;;;;24.48;30.58;100301.69;7425098;26;20351;-80
2024/04/12 09:24:09;;;;;;;5.30;4.20;;;;;;;25.11;30.08;100312.84;7425074;26;20259;-80
2024/04/12 09:27:34;;;;;;;8.67;5.27;;;;;;;23.62;32.00;100320.94;7471179;26;20296;-80
2024/04/12 09:34:40;;;;;;;5.47;4.83;;;;;;;23.85;31.41;100312.47;7478921;26;20212;-83
2024/04/12 09:38:05;;;;;;;5.83;4.83;;;;;;;25.56;29.42;100328.97;7460862;26;20266;-83
2024/04/12 09:41:28;;;;;;;5.33;4.70;;;;;;;25.92;28.58;100323.44;7477306;26;20243;-86
2024/04/12 09:44:59;;;;;;;6.97;4.93;;;;;;;24.84;29.21;100309.28;7473607;26;20260;-86
2024/04/12 10:40:09;;;;;;;5.87;4.40;;;;;;;24.91;28.03;100282.31;7436234;26;20232;-85
2024/04/12 10:43:37;;;;;;;8.90;4.27;;;;;;;26.89;24.82;100259.88;7429567;26;20695;-85
2024/04/12 10:47:01;;;;;;;5.77;3.97;;;;;;;27.68;24.14;100256.22;7430171;26;20299;-85
2024/04/12 10:50:23;;;;;;;6.10;4.10;;;;;;;27.35;25.21;100242.97;7431529;26;20721;-86
2024/04/12 10:53:49;;;;;;;4.80;3.90;;;;;;;28.06;23.77;100255.53;7428957;26;20230;-85
2024/04/12 10:57:18;;;;;;;9.37;4.50;;;;;;;26.82;25.32;100251.84;7434689;26;20225;-88
2024/04/12 11:00:48;;;;;;;6.50;4.40;;;;;;;27.82;24.08;100243.44;7429360;26;20613;-84
2024/04/12 11:04:12;;;;;;;6.33;3.80;;;;;;;26.27;26.01;100246.19;7435069;26;20279;-84
2024/04/12 11:07:35;;;;;;;7.53;4.37;;;;;;;26.84;26.13;100246.03;7460964;26;20233;-85
2024/04/12 11:11:15;;;;;;;7.87;4.80;;;;;;;26.55;25.60;100175.72;7447952;26;20248;-82
2024/04/12 11:14:38;;;;;;;7.07;3.80;;;;;;;27.18;25.56;100220.28;7438025;26;20647;-85
2024/04/12 11:32:42;;;;;;;7.63;4.47;;;;;;;26.26;26.08;100221.56;7464802;26;20226;-83
2024/04/12 11:36:10;;;;;;;7.33;3.87;;;;;;;26.13;27.27;100169.53;7476011;26;20240;-84
2024/04/12 11:39:35;;;;;;;7.30;4.07;;;;;;;26.65;25.89;100220.81;7485136;26;20255;-84
2024/04/12 11:42:56;;;;;;;6.23;3.90;;;;;;;25.92;25.70;100184.38;7481902;26;20234;-84
2024/04/12 11:46:23;;;;;;;5.70;3.57;;;;;;;26.94;24.67;100216.41;7478699;26;20231;-83
2024/04/12 11:49:49;;;;;;;6.40;3.73;;;;;;;26.98;24.98;100194.53;7474913;26;20279;-83
2024/04/12 11:53:12;;;;;;;7.30;4.80;;;;;;;27.90;24.38;100197.66;7475290;26;20227;-83
2024/04/12 11:56:36;;;;;;;8.87;4.30;;;;;;;26.49;25.52;100187.84;7474611;26;20233;-83
2024/04/12 12:00:08;;;;;;;9.53;4.73;;;;;;;27.92;23.62;100143.59;7473337;26;20287;-83
2024/04/12 12:03:31;;;;;;;10.67;4.70;;;;;;;28.02;24.38;100165.69;7474273;26;20226;-82
2024/04/12 12:06:52;;;;;;;7.93;3.90;;;;;;;27.68;24.91;100173.06;7472735;26;20259;-82
2024/04/12 12:10:18;;;;;;;7.67;4.53;;;;;;;26.67;24.48;100184.56;7473263;26;20235;-81
2024/04/12 12:13:43;;;;;;;7.40;4.67;;;;;;;26.17;26.22;100187.22;7464119;26;20274;-81
2024/04/12 12:17:06;;;;;;;11.33;4.83;;;;;;;26.68;24.98;100158.56;7477892;26;20356;-80
2024/04/12 12:20:30;;;;;;;6.33;4.03;;;;;;;27.00;25.60;100178.44;7476703;26;20235;-80
2024/04/12 12:23:51;;;;;;;8.43;4.17;;;;;;;27.57;25.49;100149.25;7478862;26;20225;-81
2024/04/12 12:27:19;;;;;;;6.27;3.90;;;;;;;27.88;25.28;100155.50;7477491;26;20658;-80
2024/04/12 12:30:47;;;;;;;6.27;4.67;;;;;;;28.47;23.32;100162.66;7478932;26;20234;-80
2024/04/12 12:34:39;;;;;;;7.27;4.30;;;;;;;28.59;23.57;100117.88;7479501;26;20591;-82
2024/04/12 12:42:24;;;;;;;7.33;4.53;;;;;;;28.11;24.47;100135.41;7476398;26;20230;-81
2024/04/12 12:45:48;;;;;;;6.60;4.47;;;;;;;27.42;26.08;100142.97;7475300;26;20564;-81
2024/04/12 12:49:09;;;;;;;7.47;5.07;;;;;;;27.50;25.35;100143.19;7474511;26;20245;-80
2024/04/12 12:52:33;;;;;;;7.67;4.73;;;;;;;28.20;25.07;100137.28;7475321;26;20228;-81
2024/04/12 12:55:56;;;;;;;7.67;4.57;;;;;;;27.09;26.07;100126.94;7475083;26;20226;-81
2024/04/12 12:59:22;;;;;;;6.70;4.40;;;;;;;27.74;25.05;100091.53;7461858;26;20237;-81
2024/04/12 13:02:44;;;;;;;6.47;5.30;;;;;;;28.15;25.11;100147.59;7459750;26;20290;-80
2024/04/12 13:06:09;;;;;;;9.10;5.00;;;;;;;28.24;24.28;100107.06;7447743;26;20278;-80
2024/04/12 13:09:35;;;;;;;7.43;5.37;;;;;;;28.15;24.68;100134.56;7472948;26;20244;-81
2024/04/12 13:12:58;;;;;;;12.30;6.63;;;;;;;28.58;24.38;100083.75;7457160;26;20243;-80
2024/04/12 13:16:24;;;;;;;8.33;5.27;;;;;;;27.74;25.19;100127.56;7448709;26;20236;-80
2024/04/12 13:19:46;;;;;;;8.30;5.33;;;;;;;27.46;25.52;100114.38;7448447;26;20344;-80
2024/04/12 13:27:47;;;;;;;13.30;7.20;;;;;;;27.80;26.13;100084.88;7427671;26;20218;-80
2024/04/12 13:31:14;;;;;;;11.00;7.23;;;;;;;26.95;26.73;100110.06;7434284;26;20310;-80
2024/04/12 13:34:38;;;;;;;10.73;6.97;;;;;;;27.86;26.08;100105.06;7430788;26;20273;-81
2024/04/12 13:38:01;;;;;;;8.97;6.40;;;;;;;27.20;26.15;100043.56;7430033;26;20218;-80
2024/04/12 13:41:26;;;;;;;10.63;6.40;;;;;;;26.86;27.05;100072.16;7425300;26;20288;-80
2024/04/12 13:52:11;;;;;;;8.23;5.60;;;;;;;27.48;25.92;100086.41;7429978;26;20238;-80
2024/04/12 13:55:35;;;;;;;9.00;6.90;;;;;;;28.00;25.32;100092.22;7426189;26;20236;-80
2024/04/12 13:58:56;;;;;;;12.30;7.17;;;;;;;27.05;26.73;100056.59;7424980;26;20224;-80
2024/04/12 14:02:32;;;;;;;11.43;7.10;;;;;;;26.88;26.79;100079.09;7448479;26;20606;-84
2024/04/12 14:05:56;;;;;;;12.10;8.10;;;;;;;26.55;27.27;100073.34;7479587;26;20322;-82
2024/04/12 14:09:24;;;;;;;12.43;8.37;;;;;;;26.57;26.14;100051.75;7478053;26;20242;-82
2024/04/12 14:12:44;;;;;;;10.27;7.40;;;;;;;26.56;27.14;100073.06;7459839;26;20282;-83
2024/04/12 14:20:25;;;;;;;11.37;6.60;;;;;;;26.21;27.28;100031.56;7473896;26;20309;-84
2024/04/12 14:23:52;;;;;;;10.33;6.67;;;;;;;26.43;26.86;100079.09;7481584;26;20230;-85
2024/04/12 14:27:15;;;;;;;12.07;6.87;;;;;;;26.18;27.21;100056.19;7480797;26;20223;-82
2024/04/12 14:30:38;;;;;;;9.73;5.97;;;;;;;26.40;26.45;100021.59;7481290;26;20298;-83
2024/04/12 14:34:02;;;;;;;9.30;5.90;;;;;;;27.10;25.89;100064.91;7466968;26;20314;-84
2024/04/12 14:37:25;;;;;;;12.80;6.37;;;;;;;26.96;25.36;100023.13;7479500;26;20279;-84
2024/04/12 14:48:54;;;;;;;8.47;5.80;;;;;;;26.45;26.08;100042.88;7481003;26;20237;-84
2024/04/12 14:52:16;;;;;;;8.27;5.57;;;;;;;26.26;26.91;100045.38;7465344;26;20264;-84
2024/04/12 14:55:39;;;;;;;12.47;5.60;;;;;;;26.49;26.55;100052.28;7479644;26;20248;-83
2024/04/12 14:59:07;;;;;;;6.47;4.50;;;;;;;26.02;27.23;100035.97;7482904;26;20233;-84
2024/04/12 15:50:49;;;;;;;4.70;3.10;;;;;;;26.18;26.42;99996.16;7463735;26;20307;-85
2024/04/12 15:54:11;;;;;;;5.37;2.90;;;;;;;26.36;26.29;99992.81;7469299;26;20240;-85
2024/04/12 16:16:08;;;;;;;2.90;2.60;;;;;;;25.72;27.44;100004.69;7439061;26;20247;-84
2024/04/12 16:19:32;;;;;;;5.10;2.47;;;;;;;25.99;26.82;100008.88;7473887;26;20245;-83
2024/04/12 16:22:57;;;;;;;4.73;2.50;;;;;;;26.24;26.46;100013.59;7471541;26;20279;-84
2024/04/12 16:26:19;;;;;;;4.40;2.43;;;;;;;26.02;26.85;99972.38;7469838;26;20240;-83
2024/04/12 16:29:43;;;;;;;4.97;2.73;;;;;;;25.73;27.65;100017.41;7471475;26;20282;-86
2024/04/12 16:33:10;;;;;;;5.13;2.67;;;;;;;26.22;27.23;100002.81;7477324;26;20387;-83
2024/04/12 16:36:33;;;;;;;7.27;2.90;;;;;;;26.14;26.61;99997.81;7469248;26;20718;-82
2024/04/12 16:39:54;;;;;;;4.77;2.70;;;;;;;26.25;26.64;100018.81;7478352;26;20245;-83
2024/04/12 16:43:18;;;;;;;5.73;3.10;;;;;;;25.30;27.44;99959.88;7474341;26;20251;-82
2024/04/12 16:46:39;;;;;;;4.80;3.03;;;;;;;25.41;27.23;100001.03;7479945;26;20237;-82
2024/04/12 16:50:06;;;;;;;7.00;2.97;;;;;;;26.08;26.65;99993.38;7473130;26;20330;-82
2024/04/12 16:53:31;;;;;;;5.47;2.60;;;;;;;25.74;27.04;100000.56;7467726;26;20748;-82
2024/04/12 16:56:55;;;;;;;5.00;2.60;;;;;;;25.68;27.39;99998.03;7472141;26;20276;-82
2024/04/12 17:00:18;;;;;;;5.50;2.37;;;;;;;26.47;26.55;100001.91;7469152;26;20276;-81
2024/04/12 17:03:42;;;;;;;4.40;2.43;;;;;;;26.02;26.69;100001.97;7453401;26;20261;-82
2024/04/12 17:07:08;;;;;;;4.00;2.23;;;;;;;25.84;26.41;99999.72;7477895;26;20287;-83
2024/04/12 17:10:31;;;;;;;4.67;2.63;;;;;;;25.91;26.30;99997.56;7465492;26;20242;-85
2024/04/12 17:13:54;;;;;;;2.77;2.30;;;;;;;25.65;26.66;99999.41;7481373;26;20247;-85
2024/04/12 17:17:17;;;;;;;6.80;2.20;;;;;;;25.63;26.65;99990.59;7480080;26;20240;-83
2024/04/12 17:20:42;;;;;;;5.70;2.50;;;;;;;25.76;26.58;99998.34;7475360;26;20741;-82
2024/04/12 17:24:06;;;;;;;7.10;2.20;;;;;;;25.57;26.72;99988.91;7446382;26;20240;-81
2024/04/12 17:27:29;;;;;;;2.87;2.00;;;;;;;25.85;26.51;99987.56;7490972;26;20231;-82
2024/04/12 17:30:55;;;;;;;3.67;1.93;;;;;;;25.65;26.34;99979.28;7478807;26;20239;-82
2024/04/12 17:34:19;;;;;;;4.03;2.10;;;;;;;25.50;26.20;99982.84;7476091;26;20296;-83
2024/04/12 17:37:42;;;;;;;4.27;2.13;;;;;;;25.44;26.58;99958.22;7455675;26;20282;-83
2024/04/12 17:41:06;;;;;;;2.53;1.77;;;;;;;25.63;25.97;99970.41;7465963;26;20889;-83
2024/04/12 17:44:29;;;;;;;5.13;2.33;;;;;;;25.02;27.28;99971.34;7476278;26;20321;-83
2024/04/12 17:47:54;;;;;;;3.40;2.17;;;;;;;25.00;27.17;100007.47;7477542;26;20224;-83
2024/04/12 17:51:17;;;;;;;6.53;2.60;;;;;;;24.99;27.72;100004.97;7475661;26;20647;-83
2024/04/12 17:54:38;;;;;;;5.30;2.40;;;;;;;25.08;27.59;99989.56;7428379;26;20272;-83
2024/04/12 17:58:05;;;;;;;5.53;2.07;;;;;;;24.81;27.67;99988.91;7473031;26;20236;-83
2024/04/12 18:01:30;;;;;;;3.90;2.10;;;;;;;24.65;30.77;99978.91;7480444;26;20348;-85
2024/04/12 18:05:13;;;;;;;5.13;2.27;;;;;;;24.57;31.31;99985.75;7479115;26;20370;-89
2024/04/12 18:08:46;;;;;;;6.67;2.60;;;;;;;24.28;32.35;99995.47;7462808;26;20238;-88
2024/04/12 18:12:07;;;;;;;5.80;3.87;;;;;;;22.97;34.93;100010.88;7486230;26;20239;-88
2024/04/12 18:15:33;;;;;;;9.27;5.60;;;;;;;22.33;36.42;100012.44;7472499;26;20305;-87
2024/04/12 18:18:56;;;;;;;10.10;6.03;;;;;;;22.79;35.88;100009.28;7479953;26;20616;-86
2024/04/12 18:22:17;;;;;;;9.07;5.60;;;;;;;22.65;35.95;99996.16;7474800;26;20284;-87
2024/04/12 18:25:42;;;;;;;9.43;5.93;;;;;;;22.37;36.90;100005.31;7483385;26;20299;-84
2024/04/12 18:29:05;;;;;;;8.50;5.53;;;;;;;22.15;37.34;100020.94;7475029;26;20388;-84
2024/04/12 18:32:31;;;;;;;11.03;5.00;;;;;;;22.22;37.43;100018.84;7475163;26;20224;-85
2024/04/12 18:35:53;;;;;;;8.17;4.57;;;;;;;22.12;37.03;100021.44;7474180;26;20765;-82
2024/04/12 18:46:36;;;;;;;6.90;4.90;;;;;;;21.19;39.27;100027.66;7476045;26;20725;-81
2024/04/12 18:50:02;;;;;;;10.67;5.30;;;;;;;20.43;41.03;100032.53;7456548;26;20756;-79
2024/04/12 18:53:26;;;;;;;9.50;4.83;;;;;;;20.75;40.26;100022.00;7472069;26;20328;-78